Time;durP1;ratioP1;P1;durP2;ratioP2;P2;SDS_P1;SDS_P2;PMS_P1;PMS_P2;Temp;Humidity;BMP_temperature;BMP_pressure;BME280_temperature;BME280_humidity;BME280_pressure;Samples;Min_cycle;Max_cycle;Signal;HPM_P1;HPM_P2
2022/11/05 00:10:28;;;;;;;7.00;1.15;;;;;;;19.68;45.32;101475.06;16122900;19;129654;-34
2022/11/05 00:27:14;;;;;;;3.10;0.95;;;;;;;19.53;44.93;101494.97;16127383;19;130205;-32
2022/11/05 00:32:36;;;;;;;6.22;0.85;;;;;;;19.51;45.00;101502.69;16130554;19;130014;-39
2022/11/05 00:37:57;;;;;;;3.20;0.50;;;;;;;19.49;45.38;101510.41;16130865;19;129398;-38
2022/11/05 00:54:39;;;;;;;1.52;0.60;;;;;;;19.42;45.42;101538.25;16132381;19;130744;-37
2022/11/05 01:00:01;;;;;;;0.82;0.50;;;;;;;19.40;45.20;101545.13;16127963;19;130126;-36
2022/11/05 01:05:23;;;;;;;1.67;0.40;;;;;;;19.37;45.40;101538.13;16131361;19;130369;-36
2022/11/05 01:10:47;;;;;;;2.15;0.60;;;;;;;19.34;45.26;101558.84;16130008;19;129786;-41
2022/11/05 01:16:09;;;;;;;3.17;0.63;;;;;;;19.31;45.34;101564.88;16130401;19;129454;-34
2022/11/05 01:21:31;;;;;;;1.90;0.60;;;;;;;19.29;45.81;101571.72;16130807;19;129590;-37
2022/11/05 01:26:53;;;;;;;1.88;0.60;;;;;;;19.27;45.60;101580.31;16130085;19;129399;-40
2022/11/05 01:32:14;;;;;;;1.05;0.40;;;;;;;19.24;45.54;101569.66;16128030;19;129513;-38
2022/11/05 01:37:36;;;;;;;0.90;0.45;;;;;;;19.23;45.53;101567.97;16126382;19;129283;-34
2022/11/05 01:42:58;;;;;;;1.63;0.50;;;;;;;19.20;45.71;101568.44;16129351;19;130185;-36
2022/11/05 01:48:36;;;;;;;1.08;0.43;;;;;;;19.21;45.76;101556.25;16127372;19;129310;-34
2022/11/05 01:54:06;;;;;;;1.27;0.40;;;;;;;19.18;45.86;101565.03;16129100;19;129277;-38
2022/11/05 01:59:43;;;;;;;1.55;0.50;;;;;;;19.17;45.54;101568.91;16132314;19;130073;-39
2022/11/05 02:05:06;;;;;;;1.00;0.50;;;;;;;19.13;45.49;101571.31;16129608;19;129655;-35
2022/11/05 02:10:28;;;;;;;1.40;0.40;;;;;;;19.13;45.82;101567.66;16129276;19;130155;-36
2022/11/05 02:16:00;;;;;;;1.17;0.43;;;;;;;19.13;45.83;101567.66;16124927;19;129622;-39
2022/11/05 02:21:45;;;;;;;0.52;0.40;;;;;;;19.10;45.55;101577.31;16128324;19;129680;-36
2022/11/05 02:27:19;;;;;;;0.82;0.40;;;;;;;19.07;46.07;101570.31;16129640;19;129583;-34
2022/11/05 02:33:05;;;;;;;1.45;0.50;;;;;;;19.06;45.60;101574.16;16126878;19;129335;-38
2022/11/05 02:38:33;;;;;;;0.85;0.40;;;;;;;19.04;45.96;101579.09;16128743;19;129182;-35
2022/11/05 02:44:23;;;;;;;1.45;0.40;;;;;;;19.03;46.06;101571.84;16125838;19;129385;-35
2022/11/05 02:49:50;;;;;;;1.35;0.40;;;;;;;19.01;45.90;101571.22;16127723;19;129649;-41
2022/11/05 02:55:17;;;;;;;1.02;0.40;;;;;;;19.01;45.69;101567.63;16125061;19;129116;-37
2022/11/05 03:00:39;;;;;;;0.70;0.35;;;;;;;18.99;45.86;101564.22;16126055;19;132231;-35
2022/11/05 03:06:16;;;;;;;0.63;0.20;;;;;;;19.00;45.80;101566.75;16123900;19;129307;-35
2022/11/05 03:11:46;;;;;;;0.40;0.30;;;;;;;18.98;45.86;101571.69;16122234;19;129610;-33
2022/11/05 03:17:15;;;;;;;2.35;0.50;;;;;;;18.95;45.89;101566.63;16124458;19;129650;-35
2022/11/05 03:22:41;;;;;;;0.43;0.28;;;;;;;18.94;46.07;101566.84;16124555;19;129711;-38
2022/11/05 03:28:06;;;;;;;0.65;0.43;;;;;;;18.92;46.00;101567.91;16134112;19;129168;-38
2022/11/05 03:33:32;;;;;;;1.02;0.40;;;;;;;18.90;45.93;101564.53;16138633;19;129461;-41
2022/11/05 03:38:57;;;;;;;1.92;0.43;;;;;;;18.89;45.88;101567.53;16141140;19;131153;-34
2022/11/05 03:44:25;;;;;;;0.40;0.30;;;;;;;18.88;46.01;101574.16;16137551;19;129855;-42
2022/11/05 03:50:12;;;;;;;0.40;0.20;;;;;;;18.88;45.93;101574.16;16140826;19;129477;-34
2022/11/05 03:55:59;;;;;;;1.85;0.32;;;;;;;18.86;45.98;101557.78;16137459;19;131676;-34
2022/11/05 04:01:20;;;;;;;0.25;0.20;;;;;;;18.85;45.89;101571.84;16137508;19;130766;-41
2022/11/05 04:18:03;;;;;;;0.70;0.38;;;;;;;18.81;46.05;101570.63;16135650;19;130083;-37
2022/11/05 04:34:45;;;;;;;0.40;0.20;;;;;;;18.79;46.05;101600.50;16133558;19;129329;-33
2022/11/05 04:40:08;;;;;;;0.60;0.40;;;;;;;18.78;46.15;101599.66;16134937;19;129650;-34
2022/11/05 04:45:33;;;;;;;0.80;0.45;;;;;;;18.78;46.07;101610.72;16132874;19;129343;-33
2022/11/05 04:50:54;;;;;;;0.77;0.40;;;;;;;18.75;46.06;101617.59;16133837;19;129184;-33
2022/11/05 04:56:23;;;;;;;0.85;0.40;;;;;;;18.76;45.75;101605.44;16130964;19;130577;-33
2022/11/05 05:01:52;;;;;;;1.33;0.20;;;;;;;18.73;45.86;101614.19;16130549;19;129430;-34
2022/11/05 05:07:13;;;;;;;0.70;0.40;;;;;;;18.73;45.97;101613.38;16129629;19;129505;-34
2022/11/05 05:12:35;;;;;;;0.65;0.30;;;;;;;18.72;45.90;101617.22;16130805;19;129553;-33
2022/11/05 05:17:58;;;;;;;0.60;0.30;;;;;;;18.70;45.59;101623.00;16130654;19;129712;-36
2022/11/05 05:23:20;;;;;;;0.30;0.20;;;;;;;18.69;45.95;101618.53;16129622;19;129608;-33
2022/11/05 05:28:41;;;;;;;0.20;0.20;;;;;;;18.69;45.87;101617.66;16134092;19;129709;-33
2022/11/05 05:34:04;;;;;;;0.28;0.28;;;;;;;18.68;46.13;101622.38;16131850;19;129401;-33
2022/11/05 05:39:26;;;;;;;0.10;0.10;;;;;;;18.68;46.19;101624.28;16126899;19;129288;-33
2022/11/05 05:44:48;;;;;;;1.15;0.50;;;;;;;18.67;45.93;101619.81;16128531;19;129284;-33
2022/11/05 05:50:09;;;;;;;0.30;0.20;;;;;;;18.66;46.11;101627.31;16126949;19;129429;-33
2022/11/05 05:55:31;;;;;;;0.30;0.22;;;;;;;18.64;45.87;101632.22;16127146;19;129754;-33
2022/11/05 06:00:53;;;;;;;0.50;0.20;;;;;;;18.64;45.79;101625.84;16126896;19;129536;-33
2022/11/05 06:06:19;;;;;;;0.65;0.30;;;;;;;18.62;45.91;101631.59;16126793;19;129671;-33
2022/11/05 06:11:41;;;;;;;0.30;0.30;;;;;;;18.61;45.72;101643.75;16126633;19;129294;-33
2022/11/05 06:17:03;;;;;;;0.70;0.30;;;;;;;18.60;45.65;101639.28;16126974;19;129482;-33
2022/11/05 06:22:25;;;;;;;1.38;0.40;;;;;;;18.60;45.68;101639.28;16124708;19;129392;-33
2022/11/05 06:27:46;;;;;;;0.40;0.25;;;;;;;18.59;45.90;101644.00;16131219;19;130205;-34
2022/11/05 06:33:08;;;;;;;0.52;0.30;;;;;;;18.59;45.67;101645.91;16123651;19;129947;-33
2022/11/05 06:38:32;;;;;;;1.02;0.30;;;;;;;18.64;45.52;101651.63;16120781;19;128909;-33
2022/11/05 06:43:54;;;;;;;0.43;0.30;;;;;;;18.78;45.69;101649.53;16124165;19;132527;-33
2022/11/05 06:49:16;;;;;;;0.43;0.30;;;;;;;;;;16124728;19;130914;-33
2022/11/05 06:54:38;;;;;;;2.05;0.30;;;;;;;19.00;45.34;101658.25;16124846;19;129718;-33
2022/11/05 07:00:00;;;;;;;1.38;0.40;;;;;;;19.04;45.11;101653.09;16123944;19;129958;-34
2022/11/05 07:05:28;;;;;;;0.20;0.20;;;;;;;19.05;45.20;101665.88;16122577;19;129582;-33
2022/11/05 07:10:50;;;;;;;0.55;0.30;;;;;;;19.03;45.02;101674.44;16122554;19;128963;-34
2022/11/05 07:16:11;;;;;;;0.32;0.20;;;;;;;19.02;45.18;101671.88;16122126;19;129302;-33
2022/11/05 07:21:33;;;;;;;0.80;0.30;;;;;;;18.99;45.34;101684.28;16120173;19;129727;-33
2022/11/05 07:26:55;;;;;;;0.52;0.30;;;;;;;18.96;45.19;101684.75;16122091;19;129272;-33
2022/11/05 07:32:16;;;;;;;0.40;0.25;;;;;;;18.92;45.22;101689.06;16121111;19;129555;-33
2022/11/05 07:37:45;;;;;;;0.60;0.30;;;;;;;18.91;45.49;101692.94;16121715;19;129514;-33
2022/11/05 07:43:07;;;;;;;1.00;0.50;;;;;;;18.86;45.30;101701.06;16119956;19;129897;-33
2022/11/05 07:48:30;;;;;;;0.95;0.50;;;;;;;18.83;45.49;101707.94;16117644;19;129382;-33
2022/11/05 07:53:51;;;;;;;1.05;0.50;;;;;;;18.80;45.39;101708.38;16118024;19;131001;-34
2022/11/05 07:59:13;;;;;;;1.85;0.20;;;;;;;18.81;45.65;101706.47;16118497;19;129592;-33
2022/11/05 08:04:35;;;;;;;3.00;0.47;;;;;;;18.85;45.46;101704.91;16119088;19;129850;-33
2022/11/05 08:09:56;;;;;;;0.80;0.50;;;;;;;18.95;45.16;101704.41;16118518;19;129313;-33
2022/11/05 08:15:18;;;;;;;6.07;0.70;;;;;;;19.11;44.69;101703.81;16132309;19;129656;-33
2022/11/05 08:20:42;;;;;;;2.63;0.90;;;;;;;19.28;44.13;101714.28;16134161;19;130228;-33
2022/11/05 08:26:04;;;;;;;1.67;1.17;;;;;;;19.42;43.92;101701.13;16134554;19;134512;-33
2022/11/05 08:31:26;;;;;;;4.20;1.50;;;;;;;19.52;43.17;101710.56;16133286;19;130044;-33
2022/11/05 08:36:48;;;;;;;3.97;1.42;;;;;;;19.57;42.76;101700.72;16137354;19;130297;-33
2022/11/05 08:42:09;;;;;;;5.30;1.98;;;;;;;19.57;42.03;101696.00;16134283;19;129748;-33
2022/11/05 08:47:31;;;;;;;7.05;2.05;;;;;;;19.57;41.79;101692.38;16129111;19;130930;-33
2022/11/05 08:52:53;;;;;;;12.48;2.10;;;;;;;19.52;41.19;101702.25;16130232;19;129452;-33
2022/11/05 08:58:16;;;;;;;6.47;2.05;;;;;;;19.48;41.23;101703.81;16130883;19;129511;-33
2022/11/05 09:03:40;;;;;;;13.23;2.47;;;;;;;19.38;41.17;101712.69;16135539;19;129592;-33
2022/11/05 09:09:01;;;;;;;9.20;4.10;;;;;;;19.22;40.90;101708.63;16132702;19;129771;-40
2022/11/05 09:14:26;;;;;;;9.82;3.50;;;;;;;19.20;40.44;101707.13;16127885;19;129698;-42
2022/11/05 09:19:48;;;;;;;10.80;2.93;;;;;;;19.18;41.08;101717.59;16130175;19;129674;-41
2022/11/05 09:25:10;;;;;;;12.77;3.13;;;;;;;19.15;41.33;101715.28;16131590;19;129307;-38
2022/11/05 09:30:35;;;;;;;6.75;2.50;;;;;;;19.11;40.73;101725.13;16126679;19;130602;-41
2022/11/05 09:35:58;;;;;;;9.43;2.80;;;;;;;19.11;39.95;101722.34;16128915;19;129801;-39
2022/11/05 09:41:30;;;;;;;7.78;2.88;;;;;;;19.14;39.98;101730.22;16127765;19;129443;-43
2022/11/05 09:46:58;;;;;;;8.55;2.50;;;;;;;19.17;39.64;101730.59;16118391;19;132623;-38
2022/11/05 09:52:24;;;;;;;10.77;2.85;;;;;;;19.19;39.91;101725.69;16127780;19;129249;-37
2022/11/05 09:57:53;;;;;;;12.52;3.08;;;;;;;19.21;40.08;101722.69;16129713;19;129322;-41
2022/11/05 10:03:19;;;;;;;9.68;2.65;;;;;;;19.24;39.97;101730.56;16129838;19;129461;-40
2022/11/05 10:08:43;;;;;;;11.82;2.85;;;;;;;19.26;40.24;101733.97;16127290;19;129571;-38
2022/11/05 10:14:13;;;;;;;8.32;2.45;;;;;;;19.29;39.72;101739.06;16126668;19;129684;-38
2022/11/05 10:20:19;;;;;;;9.63;2.20;;;;;;;19.30;39.75;101735.19;16127057;19;129301;-41
2022/11/05 10:25:54;;;;;;;6.47;2.50;;;;;;;19.31;39.57;101748.00;16127547;19;129516;-41
2022/11/05 10:31:19;;;;;;;8.02;2.38;;;;;;;19.30;39.62;101743.53;16128047;19;129318;-41
2022/11/05 10:36:44;;;;;;;7.20;2.35;;;;;;;19.29;39.96;101738.19;16127921;19;130863;-42
2022/11/05 10:42:43;;;;;;;10.20;2.38;;;;;;;19.29;39.92;101749.28;16129508;19;129599;-41
2022/11/05 10:48:32;;;;;;;12.32;2.30;;;;;;;19.26;39.36;101744.22;16127093;19;129640;-39
2022/11/05 10:54:05;;;;;;;11.15;1.90;;;;;;;19.27;39.70;101741.22;16123951;19;129725;-41
2022/11/05 10:59:28;;;;;;;9.43;2.28;;;;;;;19.30;39.56;101732.44;16121650;19;129338;-40
2022/11/05 11:04:55;;;;;;;8.15;1.70;;;;;;;19.32;39.32;101727.47;16123661;19;129471;-35
2022/11/05 11:10:21;;;;;;;7.22;1.83;;;;;;;19.35;39.26;101726.19;16122470;19;129617;-43
2022/11/05 11:15:43;;;;;;;5.20;1.60;;;;;;;19.36;39.49;101719.56;16124905;19;129311;-38
2022/11/05 11:21:18;;;;;;;4.88;1.55;;;;;;;19.38;39.65;101721.00;16123091;19;129860;-37
2022/11/05 11:26:41;;;;;;;6.60;1.45;;;;;;;19.38;39.64;101697.97;16122687;19;129763;-41
2022/11/05 11:32:02;;;;;;;3.65;1.40;;;;;;;19.41;39.57;101704.97;16124224;19;129540;-40
2022/11/05 11:37:32;;;;;;;4.68;1.50;;;;;;;19.43;39.48;101700.88;16122125;19;133440;-40
2022/11/05 11:42:56;;;;;;;5.00;1.48;;;;;;;19.44;39.40;101704.53;16120829;19;129218;-42
2022/11/05 11:48:23;;;;;;;4.10;1.57;;;;;;;19.44;39.49;101699.81;16126554;19;129338;-40
2022/11/05 11:53:47;;;;;;;5.05;1.08;;;;;;;19.46;39.59;101683.78;16135723;19;129710;-40
2022/11/05 11:59:38;;;;;;;7.50;1.63;;;;;;;19.48;39.05;101686.31;16134770;19;129406;-41
2022/11/05 12:05:40;;;;;;;3.92;1.10;;;;;;;19.47;39.79;101685.47;16134139;19;130086;-41
2022/11/05 12:11:14;;;;;;;3.67;1.13;;;;;;;19.41;39.84;101691.09;16134507;19;129627;-38
2022/11/05 12:16:51;;;;;;;3.53;1.05;;;;;;;19.36;39.52;101676.00;16132083;19;129609;-40
2022/11/05 12:22:31;;;;;;;3.25;1.40;;;;;;;19.36;38.82;101662.13;16134057;19;129500;-43
2022/11/05 12:28:34;;;;;;;5.47;1.60;;;;;;;19.36;37.98;101658.50;16134273;19;129712;-40
2022/11/05 12:34:17;;;;;;;4.95;1.13;;;;;;;19.36;38.34;101653.78;16134902;19;130031;-42
2022/11/05 12:39:42;;;;;;;3.50;1.48;;;;;;;19.35;38.33;101651.28;16138127;19;133646;-40
2022/11/05 12:45:26;;;;;;;6.97;1.50;;;;;;;19.36;38.46;101642.69;16136355;19;130703;-40
2022/11/05 12:51:29;;;;;;;4.25;1.50;;;;;;;19.36;38.05;101641.88;16135584;19;129861;-42
2022/11/05 12:56:58;;;;;;;6.07;1.05;;;;;;;19.35;38.69;101632.69;16131377;19;130009;-41
2022/11/05 13:02:29;;;;;;;4.15;0.95;;;;;;;19.35;38.48;101626.28;16132668;19;130030;-37
2022/11/05 13:08:13;;;;;;;2.78;0.85;;;;;;;19.42;38.86;101631.75;16133921;19;129393;-41
2022/11/05 13:13:40;;;;;;;1.90;0.82;;;;;;;19.52;38.46;101627.31;16130657;19;130685;-39
2022/11/05 13:19:24;;;;;;;3.08;0.80;;;;;;;19.77;38.64;101628.25;16132154;19;129542;-41
2022/11/05 13:24:52;;;;;;;2.33;0.68;;;;;;;19.95;38.49;101616.22;16130258;19;129653;-39
2022/11/05 13:30:19;;;;;;;5.50;0.90;;;;;;;20.13;38.06;101612.53;16129558;19;130160;-40
2022/11/05 13:35:47;;;;;;;3.55;0.90;;;;;;;20.29;37.64;101602.63;16129601;19;129793;-40
2022/11/05 13:41:32;;;;;;;1.33;0.57;;;;;;;20.40;37.99;101598.19;16129732;19;130860;-40
2022/11/05 13:46:59;;;;;;;2.83;1.00;;;;;;;20.44;37.14;101602.16;16131065;19;129749;-41
2022/11/05 13:52:26;;;;;;;3.90;1.42;;;;;;;20.38;36.55;101600.34;16131410;19;130917;-40
2022/11/05 13:57:53;;;;;;;5.85;1.23;;;;;;;20.29;36.61;101592.38;16127104;19;129110;-41
2022/11/05 14:03:19;;;;;;;3.95;1.15;;;;;;;20.17;37.12;101593.47;16124556;19;129395;-41
2022/11/05 14:08:45;;;;;;;6.57;1.10;;;;;;;20.09;37.49;101597.44;16126551;19;129873;-42
2022/11/05 14:14:16;;;;;;;2.65;1.02;;;;;;;20.04;37.62;101597.31;16123551;19;130040;-42
2022/11/05 14:20:08;;;;;;;2.92;0.98;;;;;;;19.96;37.49;101582.66;16131285;19;129531;-42
2022/11/05 14:25:32;;;;;;;4.15;1.02;;;;;;;19.89;37.74;101601.38;16124399;19;129966;-42
2022/11/05 14:30:54;;;;;;;7.35;1.42;;;;;;;19.82;37.87;101597.84;16129155;19;129163;-43
2022/11/05 14:36:19;;;;;;;5.07;1.00;;;;;;;19.78;38.44;101594.69;16125760;19;129469;-43
2022/11/05 14:42:03;;;;;;;5.05;0.95;;;;;;;19.75;38.51;101594.34;16125749;19;129804;-43
2022/11/05 14:47:29;;;;;;;3.70;1.02;;;;;;;19.68;38.60;101586.09;16124047;19;129936;-41
2022/11/05 14:52:54;;;;;;;7.35;1.00;;;;;;;19.62;38.98;101595.41;16124835;19;129569;-42
2022/11/05 14:58:28;;;;;;;4.10;0.90;;;;;;;19.57;38.76;101598.84;16123708;19;129090;-41
2022/11/05 15:04:15;;;;;;;4.45;1.00;;;;;;;19.51;39.37;101603.41;16123461;19;129762;-43
2022/11/05 15:09:46;;;;;;;3.13;0.90;;;;;;;19.44;38.95;101599.91;16129081;19;129615;-41
2022/11/05 15:15:23;;;;;;;2.88;0.98;;;;;;;19.42;39.22;101601.25;16123914;19;129630;-43
2022/11/05 15:20:47;;;;;;;4.78;0.80;;;;;;;19.39;39.02;101599.75;16133440;19;131330;-41
2022/11/05 15:26:30;;;;;;;3.13;1.00;;;;;;;19.42;39.32;101598.47;16154958;19;129454;-41
2022/11/05 15:31:52;;;;;;;3.58;0.90;;;;;;;19.40;39.13;101600.63;16155923;19;130298;-35
2022/11/05 15:37:13;;;;;;;4.22;0.75;;;;;;;19.38;39.38;101593.38;16155291;19;129372;-43
2022/11/05 15:42:35;;;;;;;3.65;1.00;;;;;;;19.37;39.73;101597.22;16155492;19;130209;-39
2022/11/05 15:47:57;;;;;;;2.45;0.90;;;;;;;19.36;39.74;101601.09;16153918;19;130682;-41
2022/11/05 15:53:48;;;;;;;3.50;0.90;;;;;;;19.33;39.42;101609.88;16150281;19;129902;-42
2022/11/05 15:59:30;;;;;;;4.78;1.23;;;;;;;19.29;39.37;101605.03;16151266;19;131021;-41
2022/11/05 16:04:52;;;;;;;3.67;1.13;;;;;;;19.30;39.46;101596.50;16153438;19;130094;-40
2022/11/05 16:10:27;;;;;;;3.13;1.30;;;;;;;19.33;39.01;101582.13;16151281;19;130173;-40
2022/11/05 16:15:57;;;;;;;6.17;1.03;;;;;;;19.47;39.06;101587.47;16151229;19;129368;-39
2022/11/05 16:21:21;;;;;;;7.72;1.13;;;;;;;19.63;39.43;101574.88;16149940;19;134205;-42
2022/11/05 16:26:43;;;;;;;5.30;1.38;;;;;;;19.80;39.58;101572.25;16152876;19;129503;-43
2022/11/05 16:32:28;;;;;;;4.18;0.90;;;;;;;19.89;39.50;101567.19;16145037;19;129878;-42
2022/11/05 16:37:51;;;;;;;2.30;0.80;;;;;;;19.94;39.07;101572.88;16135969;19;129164;-42
2022/11/05 16:43:19;;;;;;;5.47;1.13;;;;;;;19.99;39.09;101571.09;16133792;19;129669;-41
2022/11/05 16:48:40;;;;;;;1.83;0.88;;;;;;;20.01;39.78;101565.28;16134515;19;129483;-42
2022/11/05 16:54:03;;;;;;;4.65;1.00;;;;;;;19.99;39.96;101568.31;16130556;19;129683;-43
2022/11/05 16:59:24;;;;;;;1.67;0.85;;;;;;;19.96;39.74;101576.25;16131080;19;129828;-43
2022/11/05 17:04:46;;;;;;;3.85;1.63;;;;;;;19.93;40.02;101579.50;16129598;19;129307;-42
2022/11/05 17:10:08;;;;;;;7.80;1.42;;;;;;;19.89;40.07;101576.38;16129234;19;129431;-42
2022/11/05 17:15:34;;;;;;;3.75;1.05;;;;;;;19.85;40.13;101575.16;16122274;19;131441;-43
2022/11/05 17:20:56;;;;;;;3.17;0.88;;;;;;;19.82;40.36;101575.63;16127660;19;129923;-43
2022/11/05 17:26:17;;;;;;;5.93;1.25;;;;;;;19.81;40.33;101568.41;16127484;19;129697;-43
2022/11/05 17:31:40;;;;;;;11.27;6.20;;;;;;;19.80;40.58;101564.75;16127061;19;133486;-42
2022/11/05 17:37:02;;;;;;;14.50;8.25;;;;;;;19.80;40.49;101563.94;16119287;19;130931;-42
2022/11/05 17:42:23;;;;;;;13.63;6.13;;;;;;;19.79;40.57;101565.03;16127129;19;129401;-35
2022/11/05 17:47:45;;;;;;;9.88;5.63;;;;;;;19.78;40.84;101557.78;16123869;19;129736;-42
2022/11/05 17:53:07;;;;;;;14.40;4.85;;;;;;;19.75;41.02;101563.78;16124917;19;129699;-40
2022/11/05 17:58:29;;;;;;;8.60;3.97;;;;;;;19.71;40.73;101568.13;16125517;19;132666;-40
2022/11/05 18:03:51;;;;;;;11.50;4.45;;;;;;;19.65;40.87;101570.78;16125460;19;129300;-41
2022/11/05 18:09:13;;;;;;;13.57;3.13;;;;;;;19.64;40.62;101582.09;16125167;19;129416;-33
2022/11/05 18:14:35;;;;;;;10.05;2.90;;;;;;;19.79;40.99;101599.16;16125508;19;130268;-33
2022/11/05 18:19:57;;;;;;;9.73;2.20;;;;;;;20.16;41.01;101589.84;16127222;19;129573;-33
2022/11/05 18:25:19;;;;;;;6.10;1.92;;;;;;;20.56;40.56;101607.72;16125791;19;129596;-33
2022/11/05 18:30:40;;;;;;;8.65;2.45;;;;;;;20.73;39.49;101603.13;16128342;19;130363;-33
2022/11/05 18:36:02;;;;;;;6.72;1.58;;;;;;;20.82;39.71;101602.75;16127474;19;129355;-34
2022/11/05 18:41:24;;;;;;;4.97;1.70;;;;;;;20.84;39.45;101592.25;16123837;19;133643;-33
2022/11/05 18:46:46;;;;;;;3.13;1.50;;;;;;;20.79;39.58;101592.97;16127028;19;130074;-33
2022/11/05 18:52:25;;;;;;;6.72;1.40;;;;;;;20.74;39.88;101590.03;16124466;19;129620;-33
2022/11/05 18:57:47;;;;;;;3.05;1.30;;;;;;;20.67;40.20;101594.91;16123236;19;129671;-33
2022/11/05 19:03:08;;;;;;;7.78;1.70;;;;;;;20.56;39.35;101604.94;16122457;19;129803;-33
2022/11/05 19:08:31;;;;;;;6.65;1.33;;;;;;;20.46;39.38;101608.31;16121417;19;128814;-33
2022/11/05 19:13:53;;;;;;;3.80;1.35;;;;;;;20.39;39.84;101610.38;16121574;19;130089;-33
2022/11/05 19:19:15;;;;;;;5.53;1.35;;;;;;;20.33;40.07;101605.78;16121948;19;129598;-34
2022/11/05 19:24:36;;;;;;;2.85;1.30;;;;;;;20.25;40.22;101602.28;16121845;19;129015;-33
2022/11/05 19:29:58;;;;;;;3.47;1.48;;;;;;;20.19;39.98;101591.28;16116987;19;130196;-33
2022/11/05 19:35:20;;;;;;;2.85;1.27;;;;;;;20.13;40.45;101582.00;16122691;19;129481;-33
2022/11/05 19:40:42;;;;;;;5.72;1.65;;;;;;;20.11;40.10;101575.81;16122512;19;129135;-33
2022/11/05 19:46:08;;;;;;;3.83;1.20;;;;;;;20.08;40.55;101556.84;16121377;19;129021;-33
2022/11/05 19:51:31;;;;;;;6.45;1.23;;;;;;;20.04;40.46;101550.09;16122452;19;129676;-34
2022/11/05 19:56:53;;;;;;;2.55;1.23;;;;;;;20.02;40.60;101518.94;16116687;19;129483;-34
2022/11/05 20:02:15;;;;;;;4.75;1.30;;;;;;;20.15;40.63;101499.25;16117635;19;129855;-33
2022/11/05 20:07:37;;;;;;;2.38;1.10;;;;;;;20.34;41.70;101499.09;16122510;19;129759;-34
2022/11/05 20:12:59;;;;;;;3.33;0.93;;;;;;;20.50;42.55;101495.56;16135190;19;129494;-33
2022/11/05 20:18:20;;;;;;;4.25;1.10;;;;;;;20.64;42.37;101495.28;16133292;19;129672;-33
2022/11/05 20:23:42;;;;;;;6.53;1.10;;;;;;;20.76;42.82;101496.13;16135620;19;129571;-34
2022/11/05 20:29:04;;;;;;;4.20;1.08;;;;;;;20.85;43.16;101486.31;16133774;19;134942;-33
2022/11/05 20:34:30;;;;;;;3.85;1.00;;;;;;;20.90;43.56;101505.03;16130987;19;130121;-33
2022/11/05 20:39:51;;;;;;;;;;;;;;;20.86;44.11;101507.47;16126016;19;130349;-33
2022/11/05 20:45:13;;;;;;;2.00;0.88;;;;;;;20.82;44.15;101509.03;16130307;19;130548;-33
2022/11/05 20:50:42;;;;;;;4.68;1.20;;;;;;;20.78;44.67;101513.44;16131673;19;129799;-33
2022/11/05 20:56:07;;;;;;;6.13;1.10;;;;;;;20.69;44.59;101523.19;16133251;19;129246;-33
2022/11/05 21:01:32;;;;;;;3.83;1.38;;;;;;;20.56;44.03;101539.06;16127926;19;130302;-33
2022/11/05 21:06:56;;;;;;;4.85;1.25;;;;;;;20.45;43.42;101545.47;16127059;19;130569;-33
2022/11/05 21:12:19;;;;;;;4.20;1.38;;;;;;;20.39;43.48;101549.25;16126905;19;131187;-34
2022/11/05 21:17:42;;;;;;;4.57;1.30;;;;;;;20.34;43.92;101546.34;16127588;19;129690;-33
2022/11/05 21:23:04;;;;;;;2.47;1.05;;;;;;;20.29;44.38;101542.38;16129346;19;135191;-33
2022/11/05 21:28:26;;;;;;;3.35;1.15;;;;;;;20.24;44.73;101533.06;16127017;19;130207;-33
2022/11/05 21:33:47;;;;;;;2.90;1.25;;;;;;;20.21;44.86;101528.00;16127821;19;130173;-33
2022/11/05 21:39:15;;;;;;;3.40;1.30;;;;;;;20.17;45.24;101533.19;16126671;19;129844;-33
2022/11/05 21:44:37;;;;;;;3.33;1.10;;;;;;;20.13;45.17;101526.44;16128100;19;129558;-34
2022/11/05 21:49:59;;;;;;;4.72;0.93;;;;;;;20.08;45.22;101516.03;16129534;19;129223;-33
2022/11/05 22:01:01;;;;;;;2.63;1.05;;;;;;;19.96;44.99;101510.44;16127712;19;130003;-33
2022/11/05 22:06:23;;;;;;;4.65;1.23;;;;;;;19.93;45.20;101510.94;16125659;19;129744;-33
2022/11/05 22:11:45;;;;;;;3.25;1.30;;;;;;;19.91;45.42;101513.13;16124154;19;129532;-33
2022/11/05 22:17:08;;;;;;;1.95;0.93;;;;;;;19.90;45.57;101507.78;16124603;19;129918;-34
2022/11/05 22:22:29;;;;;;;2.53;1.02;;;;;;;19.88;45.77;101496.94;16126197;19;130400;-33
2022/11/05 22:27:51;;;;;;;2.20;0.75;;;;;;;19.87;45.66;101498.00;16124071;19;129443;-33
2022/11/05 22:33:13;;;;;;;2.35;0.82;;;;;;;19.84;45.74;101484.59;16118351;19;129992;-33
2022/11/05 22:38:34;;;;;;;2.88;0.75;;;;;;;19.80;45.96;101472.31;16123228;19;130065;-33
2022/11/05 22:43:57;;;;;;;1.90;0.80;;;;;;;19.75;45.87;101472.19;16121948;19;130244;-33
2022/11/05 22:49:19;;;;;;;2.97;0.80;;;;;;;19.67;46.57;101468.69;16122062;19;130332;-34
2022/11/05 22:54:40;;;;;;;1.52;0.75;;;;;;;19.63;46.67;101464.69;16123290;19;130674;-33
2022/11/05 23:00:11;;;;;;;2.58;0.75;;;;;;;19.57;46.72;101448.16;16123481;19;129218;-33
2022/11/05 23:05:32;;;;;;;5.57;1.25;;;;;;;19.52;46.50;101446.09;16122108;19;129214;-33
2022/11/05 23:28:11;;;;;;;2.25;0.70;;;;;;;19.34;47.00;101425.69;16120438;19;129494;-33
2022/11/05 23:33:34;;;;;;;4.07;1.00;;;;;;;19.32;47.31;101433.38;16120923;19;129541;-33
2022/11/05 23:38:55;;;;;;;2.63;0.75;;;;;;;19.29;47.05;101433.88;16121419;19;129353;-33
2022/11/05 23:49:57;;;;;;;3.05;0.88;;;;;;;19.22;47.26;101411.81;16136406;19;129345;-33
2022/11/05 23:55:23;;;;;;;1.30;0.80;;;;;;;19.20;47.03;101413.09;16135074;19;130318;-34
